Latest Weather Observations for Horsley Park

IDN60801

Issued at 1:33 pm EST Friday 29 July 2016 (issued every 30 minutes, with the page automatically refreshed every 10 minutes)

About weather observations | Map of weather stations | Latest weather observations for NSW | Other Formats
Station Details ID: 067119 Name: HORSLEY PARK EQUESTRIAN CENTRE AWS Lat: -33.85 Lon: 150.86 Height: 100.0 m
Data from the previous 72 hours. | See also: Recent months at Horsley Park
Date/Time
EST
Temp
°C
App
Temp
°C
Dew
Point
°C
Rel
Hum
%
Delta-T
°C
Wind Press
QNH
hPa
Press
MSL
hPa
Rain since
9am
mm
Dir  Spd
km/h
Gust
km/h
Spd
kts
Gust
kts
29/01:30pm 17.1 - 1.1 34 7.1 - - - - - - - 0.0
29/01:00pm 16.7 - 2.0 37 6.6 - - - - - - - 0.0
29/12:30pm 15.6 - 2.7 42 5.8 - - - - - - - 0.0
29/12:00pm 14.5 - 3.6 48 5.0 - - - - - - - 0.0
29/11:30am 13.5 - 2.7 48 4.8 - - - - - - - 0.0
29/11:00am 12.4 - 1.7 48 4.6 - - - - - - - 0.0
29/10:30am 11.4 - 2.7 55 3.8 - - - - - - - 0.0
29/10:00am 10.0 - 2.8 61 3.1 - - - - - - - 0.0
29/09:30am 9.2 - 3.0 65 2.7 - - - - - - - 0.0
29/09:00am 8.2 - 4.0 75 1.8 - - - - - - - 0.0
29/08:30am 6.9 - 3.9 81 1.3 - - - - - - - 0.0
29/08:00am 5.1 - 3.9 92 0.5 - - - - - - - 0.0
29/07:30am 3.2 - 2.8 97 0.2 - - - - - - - 0.0
29/07:00am 1.9 - 1.3 96 0.2 - - - - - - - 0.0
29/06:30am 1.8 - 1.1 95 0.3 - - - - - - - 0.0
29/06:00am 1.6 - 0.6 93 0.4 - - - - - - - 0.0
29/05:30am 2.1 - 0.6 90 0.6 - - - - - - - 0.0
29/05:00am 2.7 - 1.4 91 0.5 - - - - - - - 0.0
29/04:30am 2.5 - 1.2 91 0.5 - - - - - - - 0.0
29/04:00am 3.9 - 2.7 92 0.5 - - - - - - - 0.0
29/03:30am 3.4 - 2.4 93 0.4 - - - - - - - 0.0
29/03:00am 3.3 - 1.8 90 0.6 - - - - - - - 0.0
29/02:30am 3.3 - 1.5 88 0.7 - - - - - - - 0.0
29/02:00am 4.0 - 2.2 88 0.7 - - - - - - - 0.0
29/01:30am 4.0 - 1.9 86 0.8 - - - - - - - 0.0
29/01:00am 4.9 - 1.2 77 1.5 - - - - - - - 0.0
29/12:30am 7.0 - 2.7 74 1.8 - - - - - - - 0.0
29/12:00am 5.6 - 1.7 76 1.6 - - - - - - - 0.0
 
Date/Time
EST
Temp
°C
App
Temp
°C
Dew
Point
°C
Rel
Hum
%
Delta-T
°C
Wind Press
QNH
hPa
Press
MSL
hPa
Rain since
9am
mm
Dir  Spd
km/h
Gust
km/h
Spd
kts
Gust
kts
28/11:30pm 7.4 - 1.9 68 2.3 - - - - - - - 0.0
28/11:00pm 8.5 - 2.5 66 2.5 - - - - - - - 0.0
28/10:30pm 8.1 - 2.8 69 2.2 - - - - - - - 0.0
28/10:00pm 8.2 - 2.9 69 2.3 - - - - - - - 0.0
28/09:30pm 8.3 - 2.1 65 2.6 - - - - - - - 0.0
28/09:00pm 9.1 - 2.7 64 2.7 - - - - - - - 0.0
28/08:30pm 9.2 - 2.3 62 2.9 - - - - - - - 0.0
28/08:00pm 10.2 - 2.8 60 3.2 - - - - - - - 0.0
28/07:30pm 10.6 - 2.7 58 3.4 - - - - - - - 0.0
28/07:00pm 11.2 - 3.0 57 3.6 - - - - - - - 0.0
28/06:30pm 11.9 - 3.2 55 3.9 - - - - - - - 0.0
28/06:00pm 12.6 - 3.3 53 4.2 - - - - - - - 0.0
28/05:30pm 13.6 - 3.7 51 4.5 - - - - - - - 0.0
28/05:00pm 15.2 - 4.0 47 5.2 - - - - - - - 0.0
28/04:30pm 16.9 - 3.9 42 6.1 - - - - - - - 0.0
28/04:00pm 17.9 - 4.5 41 6.4 - - - - - - - 0.0
28/03:30pm 18.4 - 3.8 38 6.9 - - - - - - - 0.0
28/03:00pm 18.6 - 4.4 39 6.8 - - - - - - - 0.0
28/02:30pm 18.3 - 4.8 41 6.5 - - - - - - - 0.0
28/02:00pm 18.1 - 4.3 40 6.6 - - - - - - - 0.0
28/01:30pm 17.6 - 3.9 40 6.5 - - - - - - - 0.0
28/01:00pm 17.1 - 3.1 39 6.5 - - - - - - - 0.0
28/12:30pm 16.0 - 3.4 43 5.8 - - - - - - - 0.0
28/12:00pm 15.5 - 3.9 46 5.4 - - - - - - - 0.0
28/11:30am 14.8 - 4.2 49 4.9 - - - - - - - 0.0
28/11:00am 14.6 - 4.3 50 4.8 - - - - - - - 0.0
28/10:30am 13.9 - 3.9 51 4.6 - - - - - - - 0.0
28/10:00am 12.9 - 3.6 53 4.2 - - - - - - - 0.0
28/09:30am 11.9 - 3.9 58 3.6 - - - - - - - 0.0
28/09:00am 11.3 - 3.3 58 3.5 - - - - - - - 0.0
28/08:30am 10.7 - 3.7 62 3.1 - - - - - - - 0.0
28/08:00am 9.6 - 3.6 66 2.6 - - - - - - - 0.0
28/07:30am 8.5 - 3.4 70 2.2 - - - - - - - 0.0
28/07:00am 4.3 - 3.0 91 0.5 - - - - - - - 0.0
28/06:30am 4.0 - 2.4 89 0.6 - - - - - - - 0.0
28/06:00am 4.0 - 2.8 92 0.5 - - - - - - - 0.0
28/05:30am 4.0 - 2.5 90 0.6 - - - - - - - 0.0
28/05:00am 4.1 - 2.3 88 0.7 - - - - - - - 0.0
28/04:30am 4.6 - 2.6 87 0.8 - - - - - - - 0.0
28/04:00am 5.1 - 3.0 86 0.9 - - - - - - - 0.0
28/03:30am 4.7 - 3.0 89 0.7 - - - - - - - 0.0
28/03:00am 4.8 - 2.8 87 0.8 - - - - - - - 0.0
28/02:30am 6.2 - 3.2 81 1.3 - - - - - - - 0.0
28/02:00am 6.3 - 3.8 84 1.1 - - - - - - - 0.0
28/01:30am 5.8 - 3.0 82 1.2 - - - - - - - 0.0
28/01:00am 5.5 - 2.7 82 1.2 - - - - - - - 0.0
28/12:30am 6.5 - 2.2 74 1.8 - - - - - - - 0.0
28/12:00am 7.6 - 3.8 77 1.6 - - - - - - - 0.0
 
Date/Time
EST
Temp
°C
App
Temp
°C
Dew
Point
°C
Rel
Hum
%
Delta-T
°C
Wind Press
QNH
hPa
Press
MSL
hPa
Rain since
9am
mm
Dir  Spd
km/h
Gust
km/h
Spd
kts
Gust
kts
27/11:30pm 5.8 - 2.8 81 1.2 - - - - - - - 0.0
27/11:00pm 5.6 - 2.1 78 1.4 - - - - - - - 0.0
27/10:30pm 8.0 - 2.5 68 2.3 - - - - - - - 0.0
27/10:00pm 8.9 - 3.3 68 2.4 - - - - - - - 0.0
27/09:30pm 8.1 - 3.6 73 1.9 - - - - - - - 0.0
27/09:00pm 7.8 - 3.1 72 2.0 - - - - - - - 0.0
27/08:30pm 8.4 - 3.7 72 2.0 - - - - - - - 0.0
27/08:00pm 8.1 - 3.4 72 2.0 - - - - - - - 0.0
27/07:30pm 8.9 - 3.3 68 2.4 - - - - - - - 0.0
27/07:00pm 10.0 - 3.1 62 3.0 - - - - - - - 0.0
27/06:30pm 12.0 - 3.3 55 3.9 - - - - - - - 0.0
27/06:00pm 13.0 - 3.7 53 4.2 - - - - - - - 0.0
27/05:30pm 13.9 - 3.1 48 4.9 - - - - - - - 0.0
27/05:00pm 15.0 - 2.5 43 5.6 - - - - - - - 0.0
27/04:30pm 16.4 - 3.1 41 6.1 - - - - - - - 0.0
27/04:00pm 16.7 - 3.1 40 6.3 - - - - - - - 0.0
27/03:30pm 17.0 - 2.6 38 6.6 - - - - - - - 0.0
27/03:00pm 17.1 - 2.3 37 6.7 - - - - - - - 0.0
27/02:30pm 16.7 - 2.7 39 6.4 - - - - - - - 0.0
27/02:00pm 17.1 - 3.1 39 6.5 - - - - - - - 0.0
27/01:30pm 17.1 - 2.7 38 6.6 - - - - - - - 0.0
27/01:00pm 16.7 - 2.7 39 6.4 - - - - - - - 0.0
27/12:30pm 16.8 - 2.4 38 6.5 - - - - - - - 0.0
27/12:00pm 16.9 - 2.9 39 6.4 - - - - - - - 0.0
27/11:30am 15.9 - 3.7 44 5.6 - - - - - - - 0.0
27/11:00am 17.5 - 4.5 42 6.2 - - - - - - - 0.0
27/10:30am 16.8 - 4.2 43 5.9 - - - - - - - 0.0
27/10:00am 16.1 - 4.5 46 5.5 - - - - - - - 0.0
27/09:30am 15.5 - 5.1 50 4.9 - - - - - - - 0.0
27/09:00am 14.0 - 5.1 55 4.2 - - - - - - - 0.0
27/08:30am 12.5 - 4.5 58 3.7 - - - - - - - 0.0
27/08:00am 11.4 - 4.2 61 3.2 - - - - - - - 0.0
27/07:30am 10.5 - 3.3 61 3.2 - - - - - - - 0.0
27/07:00am 10.9 - 3.5 60 3.3 - - - - - - - 0.0
27/06:30am 10.0 - 3.7 65 2.8 - - - - - - - 0.0
27/06:00am 9.8 - 3.8 66 2.6 - - - - - - - 0.0
27/05:30am 9.2 - 3.4 67 2.5 - - - - - - - 0.0
27/05:00am 10.1 - 3.8 65 2.8 - - - - - - - 0.0
27/04:30am 10.9 - 4.4 64 2.9 - - - - - - - 0.0
27/04:00am 9.8 - 3.5 65 2.8 - - - - - - - 0.0
27/03:30am 10.0 - 2.8 61 3.1 - - - - - - - 0.0
27/03:00am 11.0 - 2.8 57 3.6 - - - - - - - 0.0
27/02:30am 12.0 - 2.7 53 4.1 - - - - - - - 0.0
27/02:00am 11.5 - 3.0 56 3.7 - - - - - - - 0.0
27/01:30am 9.2 - 2.1 61 3.0 - - - - - - - 0.0
27/01:00am 10.8 - 1.9 54 3.8 - - - - - - - 0.0
27/12:30am 11.2 - 2.2 54 3.9 - - - - - - - 0.0
27/12:00am 11.8 - 2.3 52 4.1 - - - - - - - 0.0
 
Date/Time
EST
Temp
°C
App
Temp
°C
Dew
Point
°C
Rel
Hum
%
Delta-T
°C
Wind Press
QNH
hPa
Press
MSL
hPa
Rain since
9am
mm
Dir  Spd
km/h
Gust
km/h
Spd
kts
Gust
kts
26/11:30pm 12.7 - 2.8 51 4.4 - - - - - - - 0.0
26/11:00pm 13.0 - 3.7 53 4.2 - - - - - - - 0.0
26/10:30pm 11.2 - 3.7 60 3.3 - - - - - - - 0.0
26/10:00pm 9.5 - 2.6 62 2.9 - - - - - - - 0.0
26/09:30pm 9.0 - 2.3 63 2.8 - - - - - - - 0.0
26/09:00pm 10.4 - 1.8 55 3.6 - - - - - - - 0.0
26/08:30pm 12.2 - 1.8 49 4.5 - - - - - - - 0.0
26/08:00pm 12.4 - 1.4 47 4.7 - - - - - - - 0.0
26/07:30pm 13.3 - 1.6 45 5.1 - - - - - - - 0.0
26/07:00pm 13.8 - 2.1 45 5.1 - - - - - - - 0.0
26/06:30pm 13.6 - 2.2 46 5.0 - - - - - - - 0.0
26/06:00pm 12.7 - 2.3 49 4.5 - - - - - - - 0.0
26/05:30pm 13.8 - 2.1 45 5.1 - - - - - - - 0.0
26/05:00pm 15.0 - 1.5 40 5.9 - - - - - - - 0.0
26/04:30pm 16.2 - 1.5 37 6.5 - - - - - - - 0.0
26/04:00pm 17.0 - 1.4 35 6.9 - - - - - - - 0.0
26/03:30pm 17.8 - 0.5 31 7.6 - - - - - - - 0.0
26/03:00pm 18.2 - 0.4 30 7.8 - - - - - - - 0.0
26/02:30pm 18.8 - 1.3 31 7.9 - - - - - - - 0.0
26/02:00pm 18.4 - 1.0 31 7.8 - - - - - - - 0.0

Other Formats:

Comma delimited format used in spreadsheet applications
http://www.bom.gov.au/fwo/IDN60801/IDN60801.94760.axf

JavaScript Object Notation format (JSON) in row-major order
http://www.bom.gov.au/fwo/IDN60801/IDN60801.94760.json